createdAt,value
2019-01-03T00:03:42.681Z,2.77
2019-01-03T00:06:17.554Z,2.50
2019-01-03T00:08:52.682Z,2.73
2019-01-03T00:11:28.510Z,2.20
2019-01-03T00:14:03.857Z,2.63
2019-01-03T00:16:42.262Z,2.50
2019-01-03T00:19:17.481Z,2.67
2019-01-03T00:21:52.469Z,2.90
2019-01-03T00:24:27.692Z,2.60
2019-01-03T00:27:09.578Z,2.40
2019-01-03T00:29:43.998Z,2.40
2019-01-03T00:32:19.198Z,2.80
2019-01-03T00:34:46.739Z,2.30
2019-01-03T00:37:22.028Z,2.20
2019-01-03T00:39:48.948Z,2.40
2019-01-03T00:42:24.011Z,2.40
2019-01-03T00:45:00.806Z,2.60
2019-01-03T00:47:34.071Z,2.27
2019-01-03T00:50:08.721Z,2.50
2019-01-03T00:52:44.302Z,2.80
2019-01-03T00:58:02.004Z,2.63
2019-01-03T01:00:40.129Z,2.80
2019-01-03T01:03:18.803Z,2.57
2019-01-03T01:05:53.956Z,2.60
2019-01-03T01:08:29.456Z,2.80
2019-01-03T01:11:04.543Z,2.90
2019-01-03T01:13:39.862Z,2.60
2019-01-03T01:16:14.900Z,2.50
2019-01-03T01:18:51.803Z,2.53
2019-01-03T01:21:26.971Z,2.30
2019-01-03T01:24:02.333Z,2.43
2019-01-03T01:26:38.674Z,2.30
2019-01-03T01:29:05.696Z,2.00
2019-01-03T01:31:41.039Z,2.50
2019-01-03T01:34:16.798Z,2.30
2019-01-03T01:36:51.959Z,2.43
2019-01-03T01:39:22.916Z,2.30
2019-01-03T01:41:58.895Z,2.50
2019-01-03T01:44:33.588Z,2.07
2019-01-03T01:47:08.524Z,2.10
2019-01-03T01:49:46.309Z,2.40
2019-01-03T01:52:21.084Z,2.20
2019-01-03T01:54:55.351Z,2.40
2019-01-03T01:57:30.405Z,2.40
2019-01-03T02:00:05.880Z,2.72
2019-01-03T02:02:40.583Z,2.50
2019-01-03T02:05:16.404Z,2.40
2019-01-03T02:07:54.532Z,2.12
2019-01-03T02:10:35.857Z,2.30
2019-01-03T02:13:05.687Z,2.23
2019-01-03T02:15:40.822Z,2.13
2019-01-03T02:18:18.887Z,2.30
2019-01-03T02:20:53.871Z,2.20
2019-01-03T02:23:28.676Z,2.40
2019-01-03T02:26:04.080Z,2.20
2019-01-03T02:28:35.097Z,2.87
2019-01-03T02:31:10.487Z,2.23
2019-01-03T02:33:46.273Z,2.50
2019-01-03T02:36:17.815Z,2.92
2019-01-03T02:38:52.791Z,2.70
2019-01-03T02:41:28.300Z,2.40
2019-01-03T02:44:03.688Z,2.15
2019-01-03T02:52:15.581Z,2.40
2019-01-03T02:54:51.064Z,2.77
2019-01-03T02:57:32.391Z,2.63
2019-01-03T03:00:07.409Z,2.20
2019-01-03T03:02:42.838Z,2.30
2019-01-03T03:05:17.609Z,2.70
2019-01-03T03:07:59.051Z,2.30
2019-01-03T03:10:40.078Z,2.40
2019-01-03T03:13:14.574Z,2.60
2019-01-03T03:15:49.207Z,2.00
2019-01-03T03:18:24.711Z,2.40
2019-01-03T03:20:59.971Z,2.30
2019-01-03T03:23:35.497Z,2.10
2019-01-03T03:26:10.258Z,2.23
2019-01-03T03:28:49.758Z,2.20
2019-01-03T03:31:28.038Z,2.30
2019-01-03T03:34:03.654Z,2.30
2019-01-03T03:36:41.839Z,2.30
2019-01-03T03:39:05.179Z,2.40
2019-01-03T03:41:40.532Z,2.30
2019-01-03T03:44:13.323Z,2.37
2019-01-03T03:46:48.312Z,2.70
2019-01-03T03:49:23.726Z,2.70
2019-01-03T03:51:58.485Z,2.80
2019-01-03T03:54:33.830Z,2.40
2019-01-03T03:57:09.226Z,2.60
2019-01-03T03:59:47.356Z,2.40
2019-01-03T04:02:22.710Z,2.30
2019-01-03T04:04:57.904Z,2.50
2019-01-03T04:07:33.415Z,2.50
2019-01-03T04:10:08.613Z,2.67
2019-01-03T04:12:36.166Z,2.00
2019-01-03T04:15:11.346Z,2.30
2019-01-03T04:17:52.043Z,2.60
2019-01-03T04:20:27.672Z,2.20
2019-01-03T04:23:02.908Z,2.27
2019-01-03T04:25:44.262Z,2.47
2019-01-03T04:28:19.487Z,2.00
2019-01-03T04:31:00.729Z,2.80
2019-01-03T04:33:36.380Z,2.20
2019-01-03T04:36:08.689Z,2.55
2019-01-03T04:38:41.899Z,2.77
2019-01-03T04:41:11.285Z,2.60
2019-01-03T04:43:42.633Z,2.60
2019-01-03T04:46:20.351Z,2.60
2019-01-03T04:48:55.565Z,2.90
2019-01-03T04:51:27.859Z,2.62
2019-01-03T04:54:03.384Z,2.63
2019-01-03T04:58:55.612Z,2.47
2019-01-03T05:01:33.884Z,2.40
2019-01-03T05:04:15.380Z,2.20
2019-01-03T05:06:50.774Z,2.03
2019-01-03T05:11:43.852Z,2.57
2019-01-03T05:17:09.348Z,2.65
2019-01-03T05:19:44.573Z,2.17
2019-01-03T05:22:19.904Z,2.30
2019-01-03T05:24:55.155Z,2.55
2019-01-03T05:27:30.304Z,2.70
2019-01-03T05:30:08.484Z,3.00
2019-01-03T05:32:39.960Z,2.40
2019-01-03T05:35:14.800Z,2.80
2019-01-03T05:40:44.455Z,2.62
2019-01-03T05:45:53.875Z,2.40
2019-01-03T05:48:29.183Z,2.40
2019-01-03T05:51:04.400Z,2.60
2019-01-03T05:53:39.423Z,3.00
2019-01-03T05:56:14.909Z,2.70
2019-01-03T05:58:49.763Z,3.00
2019-01-03T06:01:18.460Z,3.53
2019-01-03T06:06:28.470Z,4.60
2019-01-03T06:09:03.894Z,3.17
2019-01-03T06:11:39.239Z,3.00
2019-01-03T06:14:14.356Z,3.90
2019-01-03T06:16:49.147Z,3.57
2019-01-03T06:24:42.832Z,2.90
2019-01-03T06:30:00.828Z,2.70
2019-01-03T06:32:36.352Z,2.90
2019-01-03T06:35:11.495Z,2.50
2019-01-03T06:37:50.242Z,3.25
2019-01-03T06:40:25.662Z,3.07
2019-01-03T06:43:00.756Z,3.00
2019-01-03T06:45:35.750Z,2.60
2019-01-03T06:48:14.256Z,2.80
2019-01-03T06:56:04.764Z,2.60
2019-01-03T06:58:40.017Z,2.90
2019-01-03T07:01:21.595Z,2.80
2019-01-03T07:06:14.244Z,2.90
2019-01-03T07:08:49.896Z,2.92
2019-01-03T07:14:16.077Z,3.00
2019-01-03T07:16:56.923Z,2.80
2019-01-03T07:19:30.365Z,3.03
2019-01-03T07:22:13.196Z,2.97
2019-01-03T07:24:55.619Z,3.10
2019-01-03T07:27:37.943Z,3.33
2019-01-03T07:30:13.643Z,3.20
2019-01-03T07:32:48.721Z,3.40
2019-01-03T07:35:23.206Z,3.30
2019-01-03T07:37:58.687Z,3.50
2019-01-03T07:40:34.022Z,3.40
2019-01-03T07:43:09.465Z,3.72
2019-01-03T07:45:44.940Z,3.00
2019-01-03T07:48:20.241Z,3.30
2019-01-03T07:50:55.396Z,3.63
2019-01-03T07:53:25.459Z,3.47
2019-01-03T07:56:00.657Z,3.20
2019-01-03T07:58:29.947Z,3.70
2019-01-03T08:01:05.127Z,3.50
2019-01-03T08:03:39.959Z,3.50
2019-01-03T08:06:15.132Z,3.40
2019-01-03T08:08:53.188Z,3.83
2019-01-03T08:11:28.719Z,3.83
2019-01-03T08:14:04.075Z,4.20
2019-01-03T08:16:43.091Z,4.00
2019-01-03T08:19:18.644Z,3.77
2019-01-03T08:21:54.072Z,4.20
2019-01-03T08:24:29.103Z,4.00
2019-01-03T08:32:18.194Z,4.10
2019-01-03T08:34:53.968Z,4.25
2019-01-03T08:37:29.005Z,4.80
2019-01-03T08:40:10.007Z,4.00
2019-01-03T08:45:40.532Z,4.50
2019-01-03T08:48:21.123Z,4.40
2019-01-03T08:51:03.529Z,3.70
2019-01-03T08:53:45.927Z,4.20
2019-01-03T08:56:28.768Z,4.12
2019-01-03T08:59:10.901Z,4.00
2019-01-03T09:01:53.466Z,4.45
2019-01-03T09:04:36.328Z,4.47
2019-01-03T09:07:18.776Z,4.33
2019-01-03T09:10:00.964Z,4.10
2019-01-03T09:12:43.370Z,4.05
2019-01-03T09:15:25.891Z,4.20
2019-01-03T09:18:09.665Z,4.50
2019-01-03T09:20:52.214Z,4.40
2019-01-03T09:23:34.640Z,4.23
2019-01-03T09:26:17.501Z,4.20
2019-01-03T09:29:00.307Z,4.77
2019-01-03T09:31:42.821Z,3.90
2019-01-03T09:34:17.817Z,3.90
2019-01-03T09:36:53.431Z,4.00
2019-01-03T09:39:28.784Z,4.20
2019-01-03T09:42:04.393Z,4.30
2019-01-03T09:44:39.716Z,3.80
2019-01-03T09:46:56.194Z,3.73
2019-01-03T09:49:13.164Z,4.20
2019-01-03T09:51:29.343Z,4.40
2019-01-03T09:53:45.773Z,4.35
2019-01-03T09:56:02.444Z,4.27
2019-01-03T09:58:19.132Z,4.15
2019-01-03T10:00:35.275Z,4.30
2019-01-03T10:02:51.537Z,4.00
2019-01-03T10:05:07.635Z,4.30
2019-01-03T10:07:24.539Z,4.10
2019-01-03T10:09:41.381Z,4.10
2019-01-03T10:11:58.053Z,5.00
2019-01-03T10:14:14.771Z,4.30
2019-01-03T10:16:30.740Z,4.20
2019-01-03T10:18:46.389Z,4.40
2019-01-03T10:21:02.321Z,3.50
2019-01-03T10:23:18.576Z,4.23
2019-01-03T10:25:34.728Z,4.30
2019-01-03T10:27:50.825Z,4.65
2019-01-03T10:30:07.544Z,4.10
2019-01-03T10:32:23.717Z,3.80
2019-01-03T10:34:40.100Z,3.80
2019-01-03T10:36:56.567Z,3.60
2019-01-03T10:39:13.401Z,3.90
2019-01-03T10:41:29.211Z,3.73
2019-01-03T10:43:45.342Z,3.70
2019-01-03T10:46:01.581Z,3.50
2019-01-03T10:48:18.572Z,3.40
2019-01-03T10:50:35.516Z,3.70
2019-01-03T10:52:51.804Z,3.60
2019-01-03T10:55:08.531Z,3.30
2019-01-03T10:57:24.591Z,2.83
2019-01-03T10:59:40.285Z,3.43
2019-01-03T11:01:56.666Z,3.22
2019-01-03T11:04:12.895Z,3.70
2019-01-03T11:06:28.696Z,4.10
2019-01-03T11:08:44.546Z,3.63
2019-01-03T11:11:02.248Z,3.87
2019-01-03T11:13:18.593Z,3.72
2019-01-03T11:15:35.787Z,3.60
2019-01-03T11:17:51.779Z,3.50
2019-01-03T11:20:08.900Z,2.90
2019-01-03T11:22:24.863Z,3.67
2019-01-03T11:24:40.807Z,3.80
2019-01-03T11:26:56.772Z,3.17
2019-01-03T11:29:12.897Z,3.40
2019-01-03T11:31:29.388Z,3.75
2019-01-03T11:33:45.351Z,3.60
2019-01-03T11:36:02.043Z,2.93
2019-01-03T11:38:18.679Z,3.30
2019-01-03T11:40:35.856Z,3.00
2019-01-03T11:42:51.872Z,3.00
2019-01-03T11:45:08.096Z,2.70
2019-01-03T11:47:25.179Z,2.97
2019-01-03T11:49:41.362Z,2.90
2019-01-03T11:51:57.409Z,2.90
2019-01-03T11:54:13.507Z,2.80
2019-01-03T11:56:29.927Z,2.80
2019-01-03T11:58:46.437Z,2.90
2019-01-03T12:01:03.241Z,3.20
2019-01-03T12:03:19.436Z,2.40
2019-01-03T12:05:36.335Z,2.33
2019-01-03T12:07:52.357Z,2.80
2019-01-03T12:10:08.411Z,2.30
2019-01-03T12:12:25.448Z,2.30
2019-01-03T12:14:41.748Z,2.30
2019-01-03T12:16:58.043Z,2.33
2019-01-03T12:19:14.365Z,2.50
2019-01-03T12:21:30.796Z,2.30
2019-01-03T12:23:47.080Z,2.43
2019-01-03T12:26:03.632Z,2.20
2019-01-03T12:28:20.032Z,2.50
2019-01-03T12:30:36.467Z,2.40
2019-01-03T12:32:52.748Z,2.10
2019-01-03T12:35:09.509Z,2.40
2019-01-03T12:37:26.110Z,2.02
2019-01-03T12:39:42.939Z,2.10
2019-01-03T12:41:59.652Z,2.37
2019-01-03T12:44:15.671Z,2.20
2019-01-03T12:46:32.643Z,2.58
2019-01-03T12:48:48.742Z,2.40
2019-01-03T12:51:05.131Z,3.30
2019-01-03T12:53:21.527Z,2.27
2019-01-03T12:55:37.323Z,2.20
2019-01-03T12:57:54.050Z,2.50
2019-01-03T13:00:10.542Z,2.60
2019-01-03T13:02:26.819Z,2.60
2019-01-03T13:04:43.012Z,2.70
2019-01-03T13:06:59.636Z,2.70
2019-01-03T13:09:18.134Z,2.30
2019-01-03T13:11:33.664Z,2.47
2019-01-03T13:13:50.644Z,2.60
2019-01-03T13:16:06.564Z,2.35
2019-01-03T13:18:22.887Z,2.63
2019-01-03T13:20:39.871Z,2.60
2019-01-03T13:22:55.848Z,3.00
2019-01-03T13:25:12.655Z,2.35
2019-01-03T13:27:28.272Z,2.60
2019-01-03T13:29:44.775Z,2.53
2019-01-03T13:32:01.499Z,2.70
2019-01-03T13:34:17.920Z,2.10
2019-01-03T13:36:33.900Z,2.60
2019-01-03T13:38:50.225Z,2.77
2019-01-03T13:41:06.066Z,2.47
2019-01-03T13:43:22.832Z,3.10
2019-01-03T13:45:38.842Z,2.60
2019-01-03T13:47:55.196Z,2.70
2019-01-03T13:50:11.555Z,2.90
2019-01-03T13:52:27.797Z,2.43
2019-01-03T13:54:43.744Z,2.80
2019-01-03T13:56:59.397Z,2.63
2019-01-03T13:59:15.771Z,2.73
2019-01-03T14:01:31.890Z,3.00
2019-01-03T14:03:48.175Z,2.70
2019-01-03T14:06:04.692Z,2.43
2019-01-03T14:08:21.101Z,2.00
2019-01-03T14:10:37.132Z,2.80
2019-01-03T14:12:52.804Z,2.47
2019-01-03T14:15:09.554Z,2.47
2019-01-03T14:17:25.403Z,2.40
2019-01-03T14:19:42.279Z,2.80
2019-01-03T14:21:58.566Z,2.40
2019-01-03T14:24:14.556Z,2.47
2019-01-03T14:26:30.808Z,2.10
2019-01-03T14:28:47.595Z,2.03
2019-01-03T14:31:03.527Z,2.40
2019-01-03T14:33:20.452Z,2.70
2019-01-03T14:35:36.868Z,2.30
2019-01-03T14:37:52.571Z,2.50
2019-01-03T14:40:09.059Z,2.30
2019-01-03T14:42:25.053Z,2.30
2019-01-03T14:44:41.314Z,2.77
2019-01-03T14:46:57.559Z,3.00
2019-01-03T14:49:14.130Z,2.43
2019-01-03T14:51:30.404Z,2.37
2019-01-03T14:53:45.832Z,2.40
2019-01-03T14:56:01.718Z,2.23
2019-01-03T14:58:17.586Z,2.83
2019-01-03T15:00:33.640Z,2.53
2019-01-03T15:02:49.103Z,2.60
2019-01-03T15:05:05.273Z,2.60
2019-01-03T15:07:21.587Z,2.70
2019-01-03T15:09:37.423Z,2.70
2019-01-03T15:11:54.225Z,2.33
2019-01-03T15:14:10.382Z,2.47
2019-01-03T15:16:27.143Z,2.97
2019-01-03T15:18:43.324Z,3.20
2019-01-03T15:20:59.753Z,2.93
2019-01-03T15:23:16.088Z,3.17
2019-01-03T15:25:31.708Z,2.10
2019-01-03T15:27:47.912Z,2.70
2019-01-03T15:30:03.891Z,2.90
2019-01-03T15:32:20.242Z,3.00
2019-01-03T15:34:36.900Z,3.10
2019-01-03T15:36:52.899Z,3.07
2019-01-03T15:39:09.411Z,3.00
2019-01-03T15:41:26.960Z,3.60
2019-01-03T15:43:43.382Z,3.10
2019-01-03T15:45:59.164Z,3.17
2019-01-03T15:48:15.304Z,3.47
2019-01-03T15:50:32.119Z,2.60
2019-01-03T15:52:48.551Z,3.10
2019-01-03T15:55:04.652Z,3.50
2019-01-03T15:57:21.222Z,2.90
2019-01-03T15:59:38.164Z,3.20
2019-01-03T16:01:54.107Z,3.40
2019-01-03T16:04:12.811Z,2.75
2019-01-03T16:06:29.468Z,3.40
2019-01-03T16:08:45.823Z,3.10
2019-01-03T16:11:01.487Z,3.47
2019-01-03T16:13:18.090Z,2.93
2019-01-03T16:15:33.972Z,3.10
2019-01-03T16:17:49.816Z,2.90
2019-01-03T16:20:06.232Z,2.97
2019-01-03T16:22:22.980Z,3.00
2019-01-03T16:24:38.622Z,3.50
2019-01-03T16:26:55.207Z,3.30
2019-01-03T16:29:11.783Z,3.10
2019-01-03T16:31:27.948Z,3.40
2019-01-03T16:33:44.193Z,3.30
2019-01-03T16:36:01.175Z,3.22
2019-01-03T16:38:17.851Z,3.40
2019-01-03T16:40:34.483Z,2.80
2019-01-03T16:42:50.827Z,2.97
2019-01-03T16:45:06.585Z,3.43
2019-01-03T16:47:22.399Z,3.23
2019-01-03T16:49:39.446Z,3.72
2019-01-03T16:51:55.347Z,4.85
2019-01-03T16:54:11.068Z,3.60
2019-01-03T16:56:27.219Z,4.10
2019-01-03T16:58:44.010Z,3.40
2019-01-03T17:01:00.757Z,3.57
2019-01-03T17:03:17.219Z,4.43
2019-01-03T17:05:33.500Z,3.70
2019-01-03T17:07:49.003Z,4.00
2019-01-03T17:10:05.555Z,3.50
2019-01-03T17:12:21.472Z,3.90
2019-01-03T17:14:37.197Z,3.70
2019-01-03T17:16:54.051Z,3.60
2019-01-03T17:19:10.683Z,3.20
2019-01-03T17:21:27.048Z,3.40
2019-01-03T17:23:43.138Z,3.30
2019-01-03T17:25:59.080Z,3.40
2019-01-03T17:28:15.314Z,2.92
2019-01-03T17:30:31.697Z,3.80
2019-01-03T17:32:47.583Z,3.30
2019-01-03T17:35:03.153Z,3.40
2019-01-03T17:37:19.523Z,4.20
2019-01-03T17:39:35.784Z,3.20
2019-01-03T17:41:52.104Z,3.33
2019-01-03T17:44:08.485Z,3.30
2019-01-03T17:46:24.996Z,3.57
2019-01-03T17:48:40.935Z,3.55
2019-01-03T17:50:57.514Z,3.90
2019-01-03T17:53:13.659Z,4.00
2019-01-03T17:55:30.671Z,3.80
2019-01-03T17:57:47.126Z,3.50
2019-01-03T18:00:03.409Z,3.40
2019-01-03T18:02:19.638Z,3.20
2019-01-03T18:04:35.743Z,4.10
2019-01-03T18:06:51.998Z,3.60
2019-01-03T18:09:08.335Z,3.93
2019-01-03T18:11:24.960Z,4.03
2019-01-03T18:13:41.543Z,3.60
2019-01-03T18:15:57.819Z,4.00
2019-01-03T18:18:13.695Z,4.20
2019-01-03T18:20:29.657Z,4.43
2019-01-03T18:22:45.744Z,3.90
2019-01-03T18:25:02.421Z,4.00
2019-01-03T18:27:18.833Z,3.83
2019-01-03T18:29:35.032Z,3.93
2019-01-03T18:31:51.095Z,4.40
2019-01-03T18:34:07.437Z,4.00
2019-01-03T18:36:23.228Z,4.20
2019-01-03T18:38:38.968Z,4.30
2019-01-03T18:40:55.296Z,4.20
2019-01-03T18:43:11.271Z,4.17
2019-01-03T18:45:28.250Z,3.80
2019-01-03T18:47:44.170Z,4.10
2019-01-03T18:49:59.863Z,4.10
2019-01-03T18:52:14.721Z,4.30
2019-01-03T18:54:38.544Z,4.20
2019-01-03T18:57:01.918Z,4.20
2019-01-03T18:59:25.275Z,4.10
2019-01-03T19:01:48.648Z,4.03
2019-01-03T19:06:42.092Z,3.80
2019-01-03T19:09:07.006Z,3.90
2019-01-03T19:11:11.640Z,3.77
2019-01-03T19:13:15.862Z,4.17
2019-01-03T19:15:20.663Z,4.20
2019-01-03T19:17:25.035Z,4.20
2019-01-03T19:19:29.399Z,3.67
2019-01-03T19:21:33.929Z,4.20
2019-01-03T19:23:38.574Z,4.28
2019-01-03T19:25:42.639Z,4.10
2019-01-03T19:27:47.408Z,4.67
2019-01-03T19:29:51.661Z,4.43
2019-01-03T19:31:55.903Z,4.75
2019-01-03T19:34:00.379Z,4.30
2019-01-03T19:36:04.999Z,3.87
2019-01-03T19:38:08.939Z,4.03
2019-01-03T19:40:14.711Z,4.10
2019-01-03T19:42:19.139Z,4.53
2019-01-03T19:44:24.173Z,4.40
2019-01-03T19:46:28.538Z,4.53
2019-01-03T19:48:32.932Z,4.30
2019-01-03T19:50:37.123Z,4.70
2019-01-03T19:52:41.863Z,4.37
2019-01-03T19:54:46.695Z,4.58
2019-01-03T19:56:51.079Z,4.45
2019-01-03T19:58:55.495Z,4.50
2019-01-03T20:00:59.635Z,4.40
2019-01-03T20:03:04.000Z,4.70
2019-01-03T20:05:09.100Z,4.47
2019-01-03T20:07:13.239Z,4.20
2019-01-03T20:09:17.667Z,5.00
2019-01-03T20:11:22.497Z,5.10
2019-01-03T20:13:27.355Z,5.67
2019-01-03T20:15:31.768Z,5.20
2019-01-03T20:17:36.052Z,5.03
2019-01-03T20:19:40.547Z,5.30
2019-01-03T20:21:44.658Z,4.90
2019-01-03T20:23:48.506Z,5.70
2019-01-03T20:25:53.391Z,5.57
2019-01-03T20:27:58.015Z,4.90
2019-01-03T20:30:02.739Z,5.08
2019-01-03T20:32:07.747Z,5.28
2019-01-03T20:34:12.427Z,5.55
2019-01-03T20:36:17.544Z,5.50
2019-01-03T20:38:21.668Z,5.13
2019-01-03T20:40:25.883Z,6.00
2019-01-03T20:42:30.072Z,5.30
2019-01-03T20:44:34.223Z,5.60
2019-01-03T20:46:38.407Z,6.07
2019-01-03T20:48:42.522Z,5.83
2019-01-03T20:50:47.059Z,5.93
2019-01-03T20:52:52.393Z,5.60
2019-01-03T20:54:56.616Z,5.73
2019-01-03T20:57:02.057Z,5.70
2019-01-03T20:59:06.242Z,5.67
2019-01-03T21:01:10.949Z,6.00
2019-01-03T21:03:15.307Z,5.55
2019-01-03T21:05:19.858Z,6.00
2019-01-03T21:07:24.468Z,5.80
2019-01-03T21:09:28.903Z,5.40
2019-01-03T21:11:33.280Z,5.30
2019-01-03T21:13:37.661Z,6.10
2019-01-03T21:15:42.701Z,6.07
2019-01-03T21:17:48.012Z,6.10
2019-01-03T21:19:52.151Z,5.20
2019-01-03T21:21:56.528Z,5.15
2019-01-03T21:24:00.735Z,6.00
2019-01-03T21:26:05.155Z,4.83
2019-01-03T21:28:09.671Z,4.83
2019-01-03T21:30:16.447Z,5.70
2019-01-03T21:32:20.631Z,5.57
2019-01-03T21:34:25.194Z,6.23
2019-01-03T21:36:29.631Z,6.30
2019-01-03T21:38:34.188Z,5.80
2019-01-03T21:40:39.046Z,6.10
2019-01-03T21:42:43.923Z,5.90
2019-01-03T21:44:48.280Z,5.60
2019-01-03T21:46:52.555Z,5.77
2019-01-03T21:48:57.172Z,5.70
2019-01-03T21:51:01.472Z,5.62
2019-01-03T21:53:05.682Z,5.90
2019-01-03T21:55:10.427Z,5.70
2019-01-03T21:57:14.648Z,5.70
2019-01-03T21:59:19.428Z,5.60
2019-01-03T22:01:23.521Z,5.80
2019-01-03T22:03:27.612Z,6.00
2019-01-03T22:05:31.755Z,5.27
2019-01-03T22:07:36.675Z,6.20
2019-01-03T22:09:40.819Z,5.53
2019-01-03T22:11:45.003Z,5.70
2019-01-03T22:13:49.398Z,5.20
2019-01-03T22:15:53.751Z,5.00
2019-01-03T22:17:58.543Z,5.60
2019-01-03T22:20:03.030Z,5.67
2019-01-03T22:22:07.753Z,5.27
2019-01-03T22:24:11.895Z,5.40
2019-01-03T22:26:16.413Z,4.20
2019-01-03T22:28:20.527Z,5.15
2019-01-03T22:30:25.627Z,4.90
2019-01-03T22:32:32.585Z,5.17
2019-01-03T22:34:36.958Z,4.70
2019-01-03T22:36:41.652Z,4.70
2019-01-03T22:38:46.015Z,4.70
2019-01-03T22:40:50.311Z,5.30
2019-01-03T22:42:54.400Z,4.60
2019-01-03T22:44:58.281Z,4.83
2019-01-03T22:47:02.669Z,4.73
2019-01-03T22:49:07.007Z,4.90
2019-01-03T22:51:11.655Z,5.00
2019-01-03T22:53:16.527Z,4.60
2019-01-03T22:55:21.281Z,4.80
2019-01-03T22:57:26.126Z,4.97
2019-01-03T22:59:30.456Z,5.27
2019-01-03T23:01:34.783Z,5.30
2019-01-03T23:03:40.227Z,5.13
2019-01-03T23:05:44.415Z,5.73
2019-01-03T23:07:49.215Z,5.50
2019-01-03T23:09:53.744Z,5.40
2019-01-03T23:11:57.867Z,5.17
2019-01-03T23:14:02.304Z,5.17
2019-01-03T23:16:06.651Z,5.77
2019-01-03T23:18:10.555Z,6.13
2019-01-03T23:20:15.280Z,5.80
2019-01-03T23:22:19.615Z,4.70
2019-01-03T23:24:24.168Z,5.50
2019-01-03T23:26:29.555Z,5.40
2019-01-03T23:28:33.878Z,5.33
2019-01-03T23:30:38.845Z,5.60
2019-01-03T23:32:42.752Z,5.37
2019-01-03T23:34:46.821Z,5.60
2019-01-03T23:36:50.720Z,5.70
2019-01-03T23:38:55.827Z,5.50
2019-01-03T23:40:59.711Z,5.60
2019-01-03T23:43:04.323Z,5.67
2019-01-03T23:45:22.894Z,5.85
2019-01-03T23:47:27.217Z,5.70
2019-01-03T23:49:31.602Z,5.60
2019-01-03T23:51:36.508Z,5.50
2019-01-03T23:53:41.659Z,5.30
2019-01-03T23:55:50.930Z,5.07
2019-01-03T23:57:56.071Z,5.00
